createdAt,value
2019-05-25T00:01:45.290Z,1.40
2019-05-25T00:04:11.290Z,1.20
2019-05-25T00:06:37.265Z,1.10
2019-05-25T00:09:04.038Z,1.30
2019-05-25T00:11:30.034Z,1.40
2019-05-25T00:13:56.013Z,1.23
2019-05-25T00:16:21.998Z,1.47
2019-05-25T00:18:48.044Z,1.10
2019-05-25T00:21:14.376Z,1.60
2019-05-25T00:23:40.890Z,1.27
2019-05-25T00:26:07.586Z,1.20
2019-05-25T00:28:33.558Z,0.90
2019-05-25T00:31:00.263Z,1.40
2019-05-25T00:33:27.025Z,1.37
2019-05-25T00:35:52.979Z,1.50
2019-05-25T00:38:18.989Z,1.40
2019-05-25T00:40:44.953Z,1.87
2019-05-25T00:43:10.938Z,1.53
2019-05-25T00:45:36.928Z,2.13
2019-05-25T00:48:02.917Z,1.77
2019-05-25T00:50:28.917Z,2.37
2019-05-25T00:52:54.879Z,2.70
2019-05-25T00:55:20.863Z,2.70
2019-05-25T00:57:46.909Z,2.53
2019-05-25T01:00:12.926Z,2.37
2019-05-25T01:02:38.908Z,2.43
2019-05-25T01:05:05.649Z,2.13
2019-05-25T01:07:32.359Z,1.80
2019-05-25T01:09:58.356Z,2.23
2019-05-25T01:12:24.293Z,1.77
2019-05-25T01:14:50.313Z,1.70
2019-05-25T01:17:16.290Z,2.07
2019-05-25T01:19:42.306Z,2.60
2019-05-25T01:22:09.002Z,2.47
2019-05-25T01:24:43.882Z,2.50
2019-05-25T01:27:01.010Z,2.57
2019-05-25T01:29:27.018Z,2.83
2019-05-25T01:31:52.969Z,2.57
2019-05-25T01:34:18.979Z,1.90
2019-05-25T01:36:44.961Z,2.00
2019-05-25T01:39:10.988Z,2.07
2019-05-25T01:41:36.941Z,1.93
2019-05-25T01:44:02.956Z,2.03
2019-05-25T01:46:28.944Z,2.00
2019-05-25T01:48:54.929Z,1.93
2019-05-25T01:51:20.934Z,1.67
2019-05-25T01:53:46.923Z,2.33
2019-05-25T01:56:12.950Z,2.13
2019-05-25T01:58:39.674Z,1.90
2019-05-25T02:01:05.655Z,2.27
2019-05-25T02:03:31.657Z,2.10
2019-05-25T02:05:57.668Z,1.43
2019-05-25T02:08:24.370Z,1.30
2019-05-25T02:10:50.387Z,1.40
2019-05-25T02:13:16.396Z,1.20
2019-05-25T02:15:43.207Z,1.17
2019-05-25T02:18:09.927Z,1.10
2019-05-25T02:20:35.940Z,1.10
2019-05-25T02:23:01.904Z,1.33
2019-05-25T02:25:27.894Z,1.50
2019-05-25T02:27:53.884Z,1.20
2019-05-25T02:30:19.873Z,1.33
2019-05-25T02:32:45.837Z,1.20
2019-05-25T02:35:11.835Z,1.27
2019-05-25T02:37:37.823Z,1.20
2019-05-25T02:40:04.571Z,1.63
2019-05-25T02:42:31.265Z,1.20
2019-05-25T02:44:57.269Z,1.13
2019-05-25T02:47:23.242Z,1.20
2019-05-25T02:49:49.972Z,1.43
2019-05-25T02:52:15.960Z,1.47
2019-05-25T02:54:41.938Z,1.60
2019-05-25T02:57:08.681Z,1.83
2019-05-25T02:59:34.676Z,1.77
2019-05-25T03:02:00.683Z,1.73
2019-05-25T03:04:26.641Z,1.50
2019-05-25T03:06:53.346Z,1.50
2019-05-25T03:09:19.335Z,1.70
2019-05-25T03:11:45.332Z,1.00
2019-05-25T03:14:12.045Z,1.70
2019-05-25T03:16:38.067Z,1.23
2019-05-25T03:19:04.051Z,1.13
2019-05-25T03:21:30.054Z,1.40
2019-05-25T03:23:56.052Z,1.40
2019-05-25T03:26:22.032Z,1.23
2019-05-25T03:28:47.991Z,1.30
2019-05-25T03:31:13.974Z,1.30
2019-05-25T03:33:39.957Z,1.23
2019-05-25T03:36:05.962Z,1.40
2019-05-25T03:38:31.997Z,1.80
2019-05-25T03:40:57.990Z,1.40
2019-05-25T03:43:24.729Z,1.40
2019-05-25T03:45:50.742Z,1.63
2019-05-25T03:48:16.731Z,1.47
2019-05-25T03:50:42.717Z,1.13
2019-05-25T03:53:08.698Z,1.40
2019-05-25T03:55:34.713Z,1.13
2019-05-25T03:58:00.681Z,1.20
2019-05-25T04:00:26.671Z,1.13
2019-05-25T04:02:52.707Z,1.30
2019-05-25T04:05:18.701Z,1.10
2019-05-25T04:07:44.710Z,1.13
2019-05-25T04:10:11.401Z,1.20
2019-05-25T04:12:37.422Z,1.00
2019-05-25T04:15:03.379Z,1.07
2019-05-25T04:17:30.137Z,1.20
2019-05-25T04:19:56.117Z,1.30
2019-05-25T04:22:22.170Z,1.00
2019-05-25T04:24:48.903Z,0.80
2019-05-25T04:27:15.672Z,1.00
2019-05-25T04:29:41.687Z,0.80
2019-05-25T04:32:07.697Z,1.00
2019-05-25T04:34:33.692Z,1.10
2019-05-25T04:36:59.669Z,1.03
2019-05-25T04:39:25.663Z,1.30
2019-05-25T04:41:52.394Z,0.90
2019-05-25T04:44:19.118Z,1.20
2019-05-25T04:46:45.134Z,1.17
2019-05-25T04:49:11.106Z,1.40
2019-05-25T04:51:37.113Z,1.10
2019-05-25T04:54:03.847Z,1.10
2019-05-25T04:56:39.487Z,1.00
2019-05-25T04:58:56.645Z,0.77
2019-05-25T05:01:22.829Z,1.13
2019-05-25T05:03:48.687Z,1.07
2019-05-25T05:06:14.715Z,1.40
2019-05-25T05:08:40.676Z,1.40
2019-05-25T05:11:06.621Z,1.03
2019-05-25T05:13:32.644Z,0.93
2019-05-25T05:15:58.617Z,1.07
2019-05-25T05:18:24.626Z,1.00
2019-05-25T05:20:50.608Z,1.40
2019-05-25T05:23:16.601Z,2.17
2019-05-25T05:25:42.604Z,2.10
2019-05-25T05:28:08.618Z,1.80
2019-05-25T05:30:34.629Z,1.60
2019-05-25T05:33:01.396Z,1.20
2019-05-25T05:35:27.384Z,1.33
2019-05-25T05:37:54.121Z,1.23
2019-05-25T05:40:20.102Z,1.10
2019-05-25T05:42:46.091Z,1.10
2019-05-25T05:45:12.069Z,1.10
2019-05-25T05:47:38.093Z,0.97
2019-05-25T05:50:04.083Z,1.07
2019-05-25T05:52:30.089Z,1.00
2019-05-25T05:54:56.070Z,1.03
2019-05-25T05:57:22.089Z,1.13
2019-05-25T05:59:48.070Z,1.20
2019-05-25T06:02:14.078Z,1.20
2019-05-25T06:04:40.056Z,1.17
2019-05-25T06:07:06.045Z,1.33
2019-05-25T06:09:32.050Z,1.10
2019-05-25T06:11:58.030Z,1.30
2019-05-25T06:14:24.008Z,1.20
2019-05-25T06:16:49.997Z,1.00
2019-05-25T06:19:16.769Z,1.03
2019-05-25T06:21:42.746Z,1.10
2019-05-25T06:24:08.733Z,1.00
2019-05-25T06:26:34.714Z,0.90
2019-05-25T06:29:01.466Z,1.10
2019-05-25T06:31:28.191Z,1.00
2019-05-25T06:33:54.934Z,0.93
2019-05-25T06:36:21.644Z,1.00
2019-05-25T06:38:47.648Z,1.30
2019-05-25T06:41:13.615Z,1.10
2019-05-25T06:43:40.378Z,1.17
2019-05-25T06:46:06.372Z,1.20
2019-05-25T06:48:32.375Z,1.00
2019-05-25T06:50:58.359Z,1.30
2019-05-25T06:53:24.346Z,1.30
2019-05-25T06:55:51.095Z,1.10
2019-05-25T06:58:17.834Z,1.50
2019-05-25T07:00:44.578Z,1.57
2019-05-25T07:03:10.625Z,1.27
2019-05-25T07:05:36.591Z,1.17
2019-05-25T07:08:02.601Z,1.00
2019-05-25T07:10:28.563Z,1.03
2019-05-25T07:12:55.296Z,0.97
2019-05-25T07:15:22.043Z,0.90
2019-05-25T07:17:48.773Z,0.90
2019-05-25T07:20:14.777Z,0.80
2019-05-25T07:22:40.734Z,0.73
2019-05-25T07:25:07.472Z,0.97
2019-05-25T07:27:33.430Z,0.80
2019-05-25T07:29:59.443Z,1.00
2019-05-25T07:32:25.398Z,0.80
2019-05-25T07:34:51.376Z,0.70
2019-05-25T07:37:17.415Z,0.80
2019-05-25T07:39:43.397Z,0.80
2019-05-25T07:42:09.416Z,1.10
2019-05-25T07:44:35.468Z,0.90
2019-05-25T07:47:02.183Z,0.83
2019-05-25T07:49:28.204Z,0.90
2019-05-25T07:51:55.097Z,1.20
2019-05-25T07:54:22.219Z,1.20
2019-05-25T07:56:48.247Z,1.40
2019-05-25T07:59:15.027Z,1.33
2019-05-25T08:01:41.047Z,1.40
2019-05-25T08:04:07.090Z,1.10
2019-05-25T08:06:33.078Z,1.80
2019-05-25T08:08:59.817Z,1.30
2019-05-25T08:11:25.826Z,1.10
2019-05-25T08:13:51.850Z,1.50
2019-05-25T08:16:18.588Z,1.23
2019-05-25T08:18:44.559Z,1.13
2019-05-25T08:21:10.592Z,1.30
2019-05-25T08:23:36.560Z,1.37
2019-05-25T08:26:03.304Z,1.10
2019-05-25T08:28:33.133Z,0.90
2019-05-25T08:30:56.089Z,0.93
2019-05-25T08:33:22.084Z,0.80
2019-05-25T08:35:48.823Z,0.70
2019-05-25T08:38:15.556Z,0.70
2019-05-25T08:40:41.567Z,0.70
2019-05-25T08:43:07.530Z,1.10
2019-05-25T08:45:33.699Z,0.73
2019-05-25T08:47:59.584Z,0.47
2019-05-25T08:50:37.611Z,0.50
2019-05-25T08:52:51.637Z,0.50
2019-05-25T08:55:17.647Z,0.70
2019-05-25T08:57:43.604Z,0.80
2019-05-25T09:00:09.646Z,0.80
2019-05-25T09:02:35.636Z,0.87
2019-05-25T09:05:01.643Z,0.80
2019-05-25T09:07:27.602Z,0.90
2019-05-25T09:09:53.653Z,0.80
2019-05-25T09:12:19.636Z,0.97
2019-05-25T09:14:45.632Z,1.20
2019-05-25T09:17:11.660Z,1.00
2019-05-25T09:19:37.616Z,0.87
2019-05-25T09:22:04.075Z,1.00
2019-05-25T09:24:29.676Z,0.73
2019-05-25T09:26:55.701Z,0.90
2019-05-25T09:29:21.706Z,1.00
2019-05-25T09:31:47.722Z,1.20
2019-05-25T09:34:13.733Z,1.07
2019-05-25T09:36:39.733Z,1.80
2019-05-25T09:39:06.463Z,1.30
2019-05-25T09:41:33.247Z,1.10
2019-05-25T09:43:59.250Z,1.10
2019-05-25T09:46:25.978Z,1.40
2019-05-25T09:48:52.722Z,1.17
2019-05-25T09:51:18.764Z,1.30
2019-05-25T09:53:44.789Z,1.23
2019-05-25T09:56:10.814Z,1.60
2019-05-25T09:58:36.769Z,1.37
2019-05-25T10:01:02.781Z,1.77
2019-05-25T10:03:28.755Z,1.60
2019-05-25T10:05:54.776Z,1.33
2019-05-25T10:08:21.493Z,1.60
2019-05-25T10:10:47.534Z,1.40
2019-05-25T10:13:13.514Z,1.30
2019-05-25T10:15:39.507Z,1.30
2019-05-25T10:18:06.228Z,1.20
2019-05-25T10:20:32.979Z,1.20
2019-05-25T10:22:59.766Z,1.23
2019-05-25T10:25:25.763Z,1.10
2019-05-25T10:27:51.807Z,1.23
2019-05-25T10:30:17.819Z,1.10
2019-05-25T10:32:43.845Z,1.30
2019-05-25T10:35:09.806Z,1.10
2019-05-25T10:37:35.811Z,0.83
2019-05-25T10:40:01.772Z,1.30
2019-05-25T10:42:28.527Z,1.20
2019-05-25T10:44:55.244Z,1.10
2019-05-25T10:47:21.995Z,1.00
2019-05-25T10:49:47.971Z,1.17
2019-05-25T10:52:13.972Z,0.77
2019-05-25T10:54:39.952Z,0.70
2019-05-25T10:57:06.714Z,0.70
2019-05-25T10:59:33.444Z,0.83
2019-05-25T11:02:00.221Z,0.73
2019-05-25T11:04:26.203Z,0.60
2019-05-25T11:06:52.233Z,0.90
2019-05-25T11:09:18.979Z,0.80
2019-05-25T11:11:45.738Z,0.90
2019-05-25T11:14:11.737Z,1.00
2019-05-25T11:16:38.513Z,1.20
2019-05-25T11:19:04.516Z,0.93
2019-05-25T11:21:31.245Z,1.10
2019-05-25T11:23:57.951Z,1.00
2019-05-25T11:26:23.971Z,1.17
2019-05-25T11:28:49.973Z,1.20
2019-05-25T11:31:15.981Z,1.20
2019-05-25T11:33:42.007Z,1.17
2019-05-25T11:36:08.696Z,1.10
2019-05-25T11:38:35.468Z,0.90
2019-05-25T11:41:01.473Z,1.10
2019-05-25T11:43:28.240Z,0.80
2019-05-25T11:45:54.223Z,1.00
2019-05-25T11:48:20.236Z,0.90
2019-05-25T11:50:46.215Z,0.90
2019-05-25T11:53:12.211Z,0.90
2019-05-25T11:55:38.187Z,0.93
2019-05-25T11:58:04.267Z,1.00
2019-05-25T12:00:30.950Z,1.07
2019-05-25T12:02:56.957Z,1.00
2019-05-25T12:05:22.968Z,0.90
2019-05-25T12:07:49.713Z,1.00
2019-05-25T12:10:15.756Z,0.90
2019-05-25T12:12:41.770Z,1.17
2019-05-25T12:15:07.763Z,0.90
2019-05-25T12:17:33.789Z,1.10
2019-05-25T12:19:59.760Z,0.90
2019-05-25T12:22:25.770Z,1.00
2019-05-25T12:24:51.810Z,1.00
2019-05-25T12:27:17.852Z,1.10
2019-05-25T12:29:43.812Z,0.80
2019-05-25T12:32:09.826Z,0.83
2019-05-25T12:34:36.561Z,0.90
2019-05-25T12:37:03.304Z,0.87
2019-05-25T12:39:29.309Z,0.90
2019-05-25T12:41:55.266Z,0.93
2019-05-25T12:44:21.265Z,0.90
2019-05-25T12:46:48.024Z,0.90
2019-05-25T12:49:14.762Z,0.90
2019-05-25T12:51:41.559Z,0.90
2019-05-25T12:54:07.634Z,0.77
2019-05-25T12:56:33.606Z,1.00
2019-05-25T12:58:59.660Z,0.90
2019-05-25T13:01:25.639Z,0.80
2019-05-25T13:03:51.656Z,0.80
2019-05-25T13:06:18.479Z,0.90
2019-05-25T13:08:44.117Z,0.90
2019-05-25T13:11:10.472Z,0.90
2019-05-25T13:13:36.478Z,1.00
2019-05-25T13:16:02.519Z,0.80
2019-05-25T13:18:29.322Z,0.73
2019-05-25T13:20:55.298Z,0.87
2019-05-25T13:23:21.278Z,0.70
2019-05-25T13:25:47.266Z,0.80
2019-05-25T13:28:14.030Z,0.70
2019-05-25T13:30:40.044Z,0.70
2019-05-25T13:33:06.802Z,0.70
2019-05-25T13:35:32.788Z,0.70
2019-05-25T13:37:59.553Z,0.80
2019-05-25T13:40:26.281Z,0.77
2019-05-25T13:42:52.995Z,0.80
2019-05-25T13:45:18.991Z,0.60
2019-05-25T13:47:44.969Z,0.80
2019-05-25T13:50:11.734Z,0.80
2019-05-25T13:52:38.624Z,1.07
2019-05-25T13:55:06.764Z,1.10
2019-05-25T13:57:32.744Z,1.17
2019-05-25T13:59:58.741Z,1.00
2019-05-25T14:02:24.747Z,1.03
2019-05-25T14:04:50.747Z,1.20
2019-05-25T14:07:16.715Z,1.40
2019-05-25T14:09:42.740Z,0.90
2019-05-25T14:12:08.707Z,1.10
2019-05-25T14:14:34.734Z,1.20
2019-05-25T14:17:00.751Z,1.10
2019-05-25T14:19:26.752Z,1.10
2019-05-25T14:21:53.490Z,0.90
2019-05-25T14:24:19.489Z,1.00
2019-05-25T14:26:45.471Z,1.10
2019-05-25T14:29:11.464Z,0.90
2019-05-25T14:31:45.563Z,0.90
2019-05-25T14:34:04.252Z,1.20
2019-05-25T14:36:30.222Z,1.00
2019-05-25T14:38:56.216Z,0.70
2019-05-25T14:41:22.178Z,0.60
2019-05-25T14:43:48.184Z,0.70
2019-05-25T14:46:26.980Z,0.70
2019-05-25T14:48:40.246Z,0.90
2019-05-25T14:51:06.246Z,0.90
2019-05-25T14:53:32.234Z,0.80
2019-05-25T14:55:58.995Z,1.07
2019-05-25T14:58:24.987Z,1.17
2019-05-25T15:00:51.731Z,1.30
2019-05-25T15:03:18.510Z,1.33
2019-05-25T15:05:44.515Z,1.00
2019-05-25T15:08:10.490Z,1.40
2019-05-25T15:10:36.487Z,1.30
2019-05-25T15:13:02.459Z,1.20
2019-05-25T15:15:29.215Z,1.13
2019-05-25T15:17:55.199Z,1.30
2019-05-25T15:20:21.211Z,1.43
2019-05-25T15:22:47.308Z,1.10
2019-05-25T15:25:13.264Z,1.20
2019-05-25T15:27:39.244Z,1.37
2019-05-25T15:30:05.245Z,1.40
2019-05-25T15:32:31.218Z,1.20
2019-05-25T15:34:57.229Z,1.17
2019-05-25T15:37:23.185Z,1.10
2019-05-25T15:39:49.179Z,1.13
2019-05-25T15:42:15.156Z,1.10
2019-05-25T15:44:41.900Z,1.40
2019-05-25T15:47:08.631Z,1.27
2019-05-25T15:49:35.359Z,1.00
2019-05-25T15:52:01.769Z,1.13
2019-05-25T15:54:27.774Z,1.10
2019-05-25T15:56:53.779Z,1.40
2019-05-25T15:59:23.372Z,1.47
2019-05-25T16:01:45.802Z,1.30
2019-05-25T16:04:12.516Z,1.30
2019-05-25T16:06:38.521Z,1.30
2019-05-25T16:09:04.528Z,1.30
2019-05-25T16:11:32.229Z,1.33
2019-05-25T16:13:57.346Z,1.20
2019-05-25T16:16:29.701Z,1.50
2019-05-25T16:18:50.129Z,1.37
2019-05-25T16:21:16.133Z,1.40
2019-05-25T16:23:42.127Z,0.83
2019-05-25T16:26:08.139Z,1.60
2019-05-25T16:28:34.111Z,1.20
2019-05-25T16:31:00.853Z,1.30
2019-05-25T16:33:27.560Z,1.40
2019-05-25T16:35:57.671Z,1.30
2019-05-25T16:38:20.360Z,1.33
2019-05-25T16:40:47.090Z,1.30
2019-05-25T16:43:13.071Z,1.23
2019-05-25T16:45:39.062Z,1.40
2019-05-25T16:48:05.032Z,1.60
2019-05-25T16:50:30.990Z,1.37
2019-05-25T16:52:57.731Z,1.40
2019-05-25T16:55:23.712Z,1.30
2019-05-25T16:57:49.718Z,1.60
2019-05-25T17:00:15.742Z,1.27
2019-05-25T17:02:41.738Z,1.50
2019-05-25T17:05:07.707Z,1.47
2019-05-25T17:07:33.714Z,1.23
2019-05-25T17:09:59.685Z,1.40
2019-05-25T17:12:25.711Z,1.73
2019-05-25T17:14:52.430Z,1.60
2019-05-25T17:17:18.429Z,1.67
2019-05-25T17:19:44.406Z,1.50
2019-05-25T17:22:11.124Z,1.50
2019-05-25T17:24:37.107Z,1.60
2019-05-25T17:27:03.100Z,1.60
2019-05-25T17:29:29.106Z,2.00
2019-05-25T17:31:55.121Z,1.93
2019-05-25T17:34:21.101Z,1.67
2019-05-25T17:36:47.121Z,1.70
2019-05-25T17:39:13.131Z,1.93
2019-05-25T17:41:39.119Z,1.60
2019-05-25T17:44:05.089Z,1.50
2019-05-25T17:46:31.087Z,1.60
2019-05-25T17:48:57.100Z,1.80
2019-05-25T17:51:23.802Z,1.57
2019-05-25T17:53:49.805Z,1.60
2019-05-25T17:56:15.786Z,1.50
2019-05-25T17:58:42.523Z,1.53
2019-05-25T18:01:15.437Z,1.60
2019-05-25T18:03:41.431Z,1.70
2019-05-25T18:06:08.171Z,1.77
2019-05-25T18:08:34.936Z,1.80
2019-05-25T18:11:00.919Z,1.50
2019-05-25T18:13:29.024Z,1.80
2019-05-25T18:15:52.976Z,1.50
2019-05-25T18:18:19.713Z,1.50
2019-05-25T18:20:45.723Z,1.60
2019-05-25T18:23:11.737Z,1.60
2019-05-25T18:25:37.709Z,1.40
2019-05-25T18:28:03.737Z,1.40
2019-05-25T18:30:29.738Z,1.90
2019-05-25T18:32:56.497Z,1.70
2019-05-25T18:35:23.249Z,1.60
2019-05-25T18:37:49.245Z,1.37
2019-05-25T18:40:16.005Z,1.37
2019-05-25T18:42:41.991Z,1.50
2019-05-25T18:45:08.064Z,1.30
2019-05-25T18:47:34.060Z,1.77
2019-05-25T18:50:00.817Z,1.63
2019-05-25T18:52:26.831Z,1.50
2019-05-25T18:54:53.593Z,1.70
2019-05-25T18:57:19.581Z,1.60
2019-05-25T18:59:46.327Z,1.97
2019-05-25T19:02:12.345Z,1.60
2019-05-25T19:04:47.249Z,1.80
2019-05-25T19:07:05.213Z,1.60
2019-05-25T19:09:31.244Z,1.37
2019-05-25T19:11:58.009Z,1.70
2019-05-25T19:14:24.054Z,1.33
2019-05-25T19:16:50.038Z,1.90
2019-05-25T19:19:16.795Z,1.77
2019-05-25T19:21:42.794Z,1.60
2019-05-25T19:24:09.540Z,1.70
2019-05-25T19:26:36.237Z,1.70
2019-05-25T19:29:05.477Z,1.97
2019-05-25T19:31:29.011Z,1.53
2019-05-25T19:33:54.997Z,1.77
2019-05-25T19:36:20.972Z,1.80
2019-05-25T19:38:46.963Z,1.93
2019-05-25T19:41:12.969Z,1.80
2019-05-25T19:43:38.952Z,1.93
2019-05-25T19:46:05.715Z,1.70
2019-05-25T19:48:31.709Z,2.10
2019-05-25T19:50:57.724Z,1.80
2019-05-25T19:53:23.700Z,1.67
2019-05-25T19:55:49.711Z,2.20
2019-05-25T19:58:15.735Z,2.27
2019-05-25T20:00:41.736Z,2.20
2019-05-25T20:03:07.716Z,1.97
2019-05-25T20:05:33.736Z,2.13
2019-05-25T20:07:59.727Z,1.97
2019-05-25T20:10:25.726Z,1.93
2019-05-25T20:12:52.439Z,1.90
2019-05-25T20:15:18.438Z,1.83
2019-05-25T20:17:44.413Z,1.60
2019-05-25T20:20:10.428Z,2.00
2019-05-25T20:22:36.413Z,1.83
2019-05-25T20:25:02.433Z,2.40
2019-05-25T20:27:28.417Z,2.07
2019-05-25T20:29:55.153Z,2.07
2019-05-25T20:32:21.867Z,1.73
2019-05-25T20:34:47.872Z,1.70
2019-05-25T20:37:13.922Z,2.30
2019-05-25T20:39:39.922Z,2.00
2019-05-25T20:42:05.930Z,2.03
2019-05-25T20:44:31.913Z,1.73
2019-05-25T20:46:58.672Z,1.80
2019-05-25T20:49:24.685Z,1.80
2019-05-25T20:51:51.435Z,1.77
2019-05-25T20:54:17.431Z,2.03
2019-05-25T20:56:44.196Z,1.63
2019-05-25T20:59:10.167Z,2.07
2019-05-25T21:01:36.210Z,1.83
2019-05-25T21:04:02.189Z,1.70
2019-05-25T21:06:28.195Z,1.90
2019-05-25T21:08:54.190Z,1.90
2019-05-25T21:11:20.969Z,1.87
2019-05-25T21:13:47.086Z,2.20
2019-05-25T21:16:13.210Z,2.03
2019-05-25T21:18:39.181Z,2.33
2019-05-25T21:21:05.260Z,2.43
2019-05-25T21:23:31.363Z,2.07
2019-05-25T21:25:57.405Z,2.47
2019-05-25T21:28:23.426Z,2.50
2019-05-25T21:30:49.402Z,2.30
2019-05-25T21:33:15.427Z,2.47
2019-05-25T21:35:41.423Z,2.20
2019-05-25T21:38:07.442Z,2.60
2019-05-25T21:40:33.451Z,2.67
2019-05-25T21:42:59.469Z,3.07
2019-05-25T21:45:25.492Z,2.63
2019-05-25T21:47:55.635Z,2.90
2019-05-25T21:50:17.541Z,2.93
2019-05-25T21:52:43.536Z,2.43
2019-05-25T21:55:10.253Z,2.80
2019-05-25T21:57:36.248Z,2.50
2019-05-25T22:00:02.242Z,2.40
2019-05-25T22:02:29.012Z,2.30
2019-05-25T22:04:55.036Z,2.70
2019-05-25T22:07:21.049Z,2.63
2019-05-25T22:09:47.026Z,2.03
2019-05-25T22:12:13.819Z,2.50
2019-05-25T22:14:39.807Z,2.30
2019-05-25T22:17:06.562Z,2.43
2019-05-25T22:19:32.516Z,2.60
2019-05-25T22:21:58.579Z,2.50
2019-05-25T22:24:24.538Z,2.93
2019-05-25T22:26:50.547Z,2.53
2019-05-25T22:29:16.568Z,2.57
2019-05-25T22:31:43.303Z,2.77
2019-05-25T22:34:10.031Z,2.90
2019-05-25T22:36:40.756Z,2.40
2019-05-25T22:39:02.788Z,2.90
2019-05-25T22:41:28.785Z,2.97
2019-05-25T22:43:54.783Z,3.10
2019-05-25T22:46:20.796Z,2.97
2019-05-25T22:48:47.498Z,2.73
2019-05-25T22:51:13.479Z,2.97
2019-05-25T22:53:39.463Z,2.63
2019-05-25T22:56:05.434Z,3.13
2019-05-25T22:58:31.446Z,3.53
2019-05-25T23:00:57.408Z,3.60
2019-05-25T23:03:23.424Z,3.37
2019-05-25T23:05:49.409Z,3.80
2019-05-25T23:08:15.401Z,3.97
2019-05-25T23:10:42.107Z,3.47
2019-05-25T23:13:08.095Z,4.17
2019-05-25T23:15:34.115Z,3.67
2019-05-25T23:18:00.106Z,3.20
2019-05-25T23:20:26.118Z,3.43
2019-05-25T23:22:52.853Z,3.10
2019-05-25T23:25:18.841Z,3.77
2019-05-25T23:27:44.848Z,3.07
2019-05-25T23:30:10.864Z,3.47
2019-05-25T23:32:36.942Z,3.37
2019-05-25T23:35:02.939Z,3.73
2019-05-25T23:37:28.966Z,3.17
2019-05-25T23:39:54.962Z,4.80
2019-05-25T23:42:20.974Z,4.50
2019-05-25T23:44:46.967Z,4.87
2019-05-25T23:47:12.977Z,5.33
2019-05-25T23:49:38.969Z,5.00
2019-05-25T23:52:04.964Z,5.00
2019-05-25T23:54:31.693Z,4.70
2019-05-25T23:56:58.438Z,6.03
2019-05-25T23:59:25.198Z,6.33
